sensor_id;sensor_type;location;lat;lon;timestamp;pressure;altitude;pressure_sealevel;temperature;humidity
8366;BME280;4220;42.502;24.188;2022-10-26T00:01:02;95634.38;;;13.87;100.00
8366;BME280;4220;42.502;24.188;2022-10-26T00:03:29;95641.47;;;13.93;100.00
8366;BME280;4220;42.502;24.188;2022-10-26T00:06:02;95639.72;;;13.98;100.00
8366;BME280;4220;42.502;24.188;2022-10-26T00:08:28;95649.25;;;14.06;100.00
8366;BME280;4220;42.502;24.188;2022-10-26T00:10:56;95648.16;;;14.25;99.54
8366;BME280;4220;42.502;24.188;2022-10-26T00:13:23;95650.28;;;14.34;97.27
8366;BME280;4220;42.502;24.188;2022-10-26T00:15:50;95654.34;;;14.37;98.88
8366;BME280;4220;42.502;24.188;2022-10-26T00:18:18;95646.91;;;14.39;99.68
8366;BME280;4220;42.502;24.188;2022-10-26T00:20:45;95651.19;;;14.40;98.28
8366;BME280;4220;42.502;24.188;2022-10-26T00:23:11;95658.28;;;14.46;96.07
8366;BME280;4220;42.502;24.188;2022-10-26T00:25:38;95649.22;;;14.35;98.16
8366;BME280;4220;42.502;24.188;2022-10-26T00:28:05;95645.53;;;14.36;98.28
8366;BME280;4220;42.502;24.188;2022-10-26T00:30:32;95657.47;;;14.34;99.54
8366;BME280;4220;42.502;24.188;2022-10-26T00:32:59;95652.25;;;14.39;98.92
8366;BME280;4220;42.502;24.188;2022-10-26T00:35:28;95650.03;;;14.36;100.00
8366;BME280;4220;42.502;24.188;2022-10-26T00:37:55;95648.66;;;14.33;100.00
8366;BME280;4220;42.502;24.188;2022-10-26T00:40:26;95653.59;;;14.30;100.00
8366;BME280;4220;42.502;24.188;2022-10-26T00:42:53;95607.06;;;14.03;100.00
8366;BME280;4220;42.502;24.188;2022-10-26T00:45:22;95648.44;;;14.47;100.00
8366;BME280;4220;42.502;24.188;2022-10-26T00:47:51;95651.09;;;14.58;100.00
8366;BME280;4220;42.502;24.188;2022-10-26T00:50:21;95643.44;;;14.73;99.86
8366;BME280;4220;42.502;24.188;2022-10-26T00:52:52;95647.72;;;14.86;98.48
8366;BME280;4220;42.502;24.188;2022-10-26T00:55:20;95628.78;;;14.87;97.92
8366;BME280;4220;42.502;24.188;2022-10-26T00:57:49;95640.72;;;14.96;97.52
8366;BME280;4220;42.502;24.188;2022-10-26T01:00:18;95639.31;;;14.94;100.00
8366;BME280;4220;42.502;24.188;2022-10-26T01:02:45;95638.78;;;14.80;100.00
8366;BME280;4220;42.502;24.188;2022-10-26T01:05:14;95640.88;;;14.78;100.00
8366;BME280;4220;42.502;24.188;2022-10-26T01:07:42;95633.78;;;14.84;100.00
8366;BME280;4220;42.502;24.188;2022-10-26T01:10:11;95630.31;;;14.83;100.00
8366;BME280;4220;42.502;24.188;2022-10-26T01:12:40;95626.09;;;14.87;100.00
8366;BME280;4220;42.502;24.188;2022-10-26T01:15:07;95631.69;;;14.86;100.00
8366;BME280;4220;42.502;24.188;2022-10-26T01:17:45;95634.22;;;14.92;100.00
8366;BME280;4220;42.502;24.188;2022-10-26T01:20:29;95638.03;;;14.96;100.00
8366;BME280;4220;42.502;24.188;2022-10-26T01:23:07;95638.53;;;14.93;100.00
8366;BME280;4220;42.502;24.188;2022-10-26T01:26:02;95632.38;;;14.93;100.00
8366;BME280;4220;42.502;24.188;2022-10-26T01:28:45;95628.06;;;14.92;100.00
8366;BME280;4220;42.502;24.188;2022-10-26T01:31:25;95616.13;;;14.83;100.00
8366;BME280;4220;42.502;24.188;2022-10-26T01:33:58;95632.38;;;14.93;100.00
8366;BME280;4220;42.502;24.188;2022-10-26T01:36:31;95627.97;;;14.98;100.00
8366;BME280;4220;42.502;24.188;2022-10-26T01:39:03;95622.38;;;15.00;100.00
8366;BME280;4220;42.502;24.188;2022-10-26T01:41:37;95628.38;;;15.07;100.00
8366;BME280;4220;42.502;24.188;2022-10-26T01:44:09;95614.72;;;15.03;100.00
8366;BME280;4220;42.502;24.188;2022-10-26T01:46:43;95631.03;;;15.19;100.00
8366;BME280;4220;42.502;24.188;2022-10-26T01:49:12;95622.22;;;15.18;100.00
8366;BME280;4220;42.502;24.188;2022-10-26T01:51:42;95631.94;;;15.24;100.00
8366;BME280;4220;42.502;24.188;2022-10-26T01:54:10;95616.63;;;15.20;98.23
8366;BME280;4220;42.502;24.188;2022-10-26T01:56:38;95631.13;;;15.24;97.94
8366;BME280;4220;42.502;24.188;2022-10-26T01:59:32;95627.56;;;15.06;95.50
8366;BME280;4220;42.502;24.188;2022-10-26T02:05:24;95605.72;;;14.47;95.89
8366;BME280;4220;42.502;24.188;2022-10-26T02:07:59;95577.00;;;13.96;96.27
8366;BME280;4220;42.502;24.188;2022-10-26T02:10:35;95612.84;;;13.88;97.26
8366;BME280;4220;42.502;24.188;2022-10-26T02:13:14;95616.56;;;13.57;99.50
8366;BME280;4220;42.502;24.188;2022-10-26T02:15:47;95609.69;;;13.20;100.00
8366;BME280;4220;42.502;24.188;2022-10-26T02:18:23;95618.06;;;13.24;100.00
8366;BME280;4220;42.502;24.188;2022-10-26T02:20:59;95609.81;;;13.43;100.00
8366;BME280;4220;42.502;24.188;2022-10-26T02:23:28;95612.38;;;13.02;100.00
8366;BME280;4220;42.502;24.188;2022-10-26T02:25:58;95610.38;;;13.16;100.00
8366;BME280;4220;42.502;24.188;2022-10-26T02:28:30;95601.84;;;13.25;100.00
8366;BME280;4220;42.502;24.188;2022-10-26T02:31:00;95601.75;;;13.32;100.00
8366;BME280;4220;42.502;24.188;2022-10-26T02:33:29;95609.47;;;13.51;100.00
8366;BME280;4220;42.502;24.188;2022-10-26T02:36:01;95607.16;;;13.55;100.00
8366;BME280;4220;42.502;24.188;2022-10-26T02:38:29;95609.72;;;13.61;100.00
8366;BME280;4220;42.502;24.188;2022-10-26T02:41:00;95600.38;;;13.70;100.00
8366;BME280;4220;42.502;24.188;2022-10-26T02:43:29;95595.63;;;13.72;100.00
8366;BME280;4220;42.502;24.188;2022-10-26T02:46:02;95600.16;;;13.84;100.00
8366;BME280;4220;42.502;24.188;2022-10-26T02:48:30;95611.91;;;13.94;100.00
8366;BME280;4220;42.502;24.188;2022-10-26T02:51:00;95570.25;;;13.82;100.00
8366;BME280;4220;42.502;24.188;2022-10-26T02:53:31;95605.56;;;14.18;100.00
8366;BME280;4220;42.502;24.188;2022-10-26T02:56:05;95603.59;;;14.14;100.00
8366;BME280;4220;42.502;24.188;2022-10-26T02:58:38;95609.88;;;14.19;100.00
8366;BME280;4220;42.502;24.188;2022-10-26T03:01:07;95596.16;;;14.04;100.00
8366;BME280;4220;42.502;24.188;2022-10-26T03:03:34;95602.88;;;14.07;100.00
8366;BME280;4220;42.502;24.188;2022-10-26T03:06:02;95607.19;;;14.08;100.00
8366;BME280;4220;42.502;24.188;2022-10-26T03:08:29;95611.59;;;14.14;100.00
8366;BME280;4220;42.502;24.188;2022-10-26T03:10:56;95615.28;;;14.13;100.00
8366;BME280;4220;42.502;24.188;2022-10-26T03:13:23;95617.28;;;14.17;100.00
8366;BME280;4220;42.502;24.188;2022-10-26T03:15:49;95617.16;;;14.24;100.00
8366;BME280;4220;42.502;24.188;2022-10-26T03:18:16;95618.31;;;14.28;100.00
8366;BME280;4220;42.502;24.188;2022-10-26T03:20:43;95624.59;;;14.22;100.00
8366;BME280;4220;42.502;24.188;2022-10-26T03:23:11;95624.16;;;14.25;100.00
8366;BME280;4220;42.502;24.188;2022-10-26T03:25:38;95623.91;;;14.26;100.00
8366;BME280;4220;42.502;24.188;2022-10-26T03:28:05;95619.03;;;14.35;100.00
8366;BME280;4220;42.502;24.188;2022-10-26T03:30:32;95622.06;;;14.50;100.00
8366;BME280;4220;42.502;24.188;2022-10-26T03:32:59;95624.97;;;14.60;100.00
8366;BME280;4220;42.502;24.188;2022-10-26T03:35:26;95636.81;;;14.76;100.00
8366;BME280;4220;42.502;24.188;2022-10-26T03:37:53;95632.50;;;14.86;100.00
8366;BME280;4220;42.502;24.188;2022-10-26T03:40:21;95634.59;;;14.84;100.00
8366;BME280;4220;42.502;24.188;2022-10-26T03:42:48;95637.25;;;14.84;100.00
8366;BME280;4220;42.502;24.188;2022-10-26T03:45:14;95636.34;;;14.90;100.00
8366;BME280;4220;42.502;24.188;2022-10-26T03:47:42;95643.06;;;14.93;100.00
8366;BME280;4220;42.502;24.188;2022-10-26T03:50:11;95619.84;;;14.82;100.00
8366;BME280;4220;42.502;24.188;2022-10-26T03:52:38;95638.03;;;14.96;100.00
8366;BME280;4220;42.502;24.188;2022-10-26T03:55:06;95632.59;;;15.03;100.00
8366;BME280;4220;42.502;24.188;2022-10-26T03:57:39;95629.09;;;15.02;100.00
8366;BME280;4220;42.502;24.188;2022-10-26T04:00:07;95622.03;;;14.96;100.00
8366;BME280;4220;42.502;24.188;2022-10-26T04:02:34;95620.69;;;14.59;97.07
8366;BME280;4220;42.502;24.188;2022-10-26T04:05:00;95626.13;;;14.29;98.84
8366;BME280;4220;42.502;24.188;2022-10-26T04:07:27;95625.75;;;14.03;97.98
8366;BME280;4220;42.502;24.188;2022-10-26T04:09:54;95617.53;;;13.74;96.60
8366;BME280;4220;42.502;24.188;2022-10-26T04:12:21;95624.25;;;13.36;98.56
8366;BME280;4220;42.502;24.188;2022-10-26T04:14:49;95623.44;;;13.35;99.65
8366;BME280;4220;42.502;24.188;2022-10-26T04:17:16;95632.34;;;13.11;100.00
8366;BME280;4220;42.502;24.188;2022-10-26T04:19:43;95626.25;;;13.04;100.00
8366;BME280;4220;42.502;24.188;2022-10-26T04:22:09;95583.31;;;12.64;100.00
8366;BME280;4220;42.502;24.188;2022-10-26T04:24:36;95627.81;;;12.93;100.00
8366;BME280;4220;42.502;24.188;2022-10-26T04:27:03;95629.00;;;12.97;100.00
8366;BME280;4220;42.502;24.188;2022-10-26T04:29:30;95626.06;;;12.87;100.00
8366;BME280;4220;42.502;24.188;2022-10-26T04:31:58;95621.75;;;12.86;100.00
8366;BME280;4220;42.502;24.188;2022-10-26T04:34:25;95637.66;;;12.93;100.00
8366;BME280;4220;42.502;24.188;2022-10-26T04:36:52;95627.72;;;13.00;100.00
8366;BME280;4220;42.502;24.188;2022-10-26T04:39:18;95627.38;;;12.96;100.00
8366;BME280;4220;42.502;24.188;2022-10-26T04:41:45;95628.84;;;12.92;100.00
8366;BME280;4220;42.502;24.188;2022-10-26T04:44:12;95626.66;;;12.89;100.00
8366;BME280;4220;42.502;24.188;2022-10-26T04:46:39;95625.00;;;12.88;100.00
8366;BME280;4220;42.502;24.188;2022-10-26T04:49:07;95622.72;;;12.92;100.00
8366;BME280;4220;42.502;24.188;2022-10-26T04:51:34;95640.84;;;13.01;100.00
8366;BME280;4220;42.502;24.188;2022-10-26T04:54:01;95644.22;;;12.90;100.00
8366;BME280;4220;42.502;24.188;2022-10-26T04:56:28;95646.94;;;12.48;100.00
8366;BME280;4220;42.502;24.188;2022-10-26T04:58:55;95640.09;;;12.76;100.00
8366;BME280;4220;42.502;24.188;2022-10-26T05:01:22;95651.75;;;12.75;100.00
8366;BME280;4220;42.502;24.188;2022-10-26T05:03:49;95655.09;;;12.53;100.00
8366;BME280;4220;42.502;24.188;2022-10-26T05:06:17;95667.81;;;12.69;100.00
8366;BME280;4220;42.502;24.188;2022-10-26T05:08:44;95661.97;;;12.60;100.00
8366;BME280;4220;42.502;24.188;2022-10-26T05:11:11;95670.13;;;12.40;100.00
8366;BME280;4220;42.502;24.188;2022-10-26T05:13:38;95672.66;;;12.54;100.00
8366;BME280;4220;42.502;24.188;2022-10-26T05:16:05;95680.38;;;12.62;100.00
8366;BME280;4220;42.502;24.188;2022-10-26T05:18:32;95674.53;;;12.71;100.00
8366;BME280;4220;42.502;24.188;2022-10-26T05:20:59;95677.44;;;12.70;100.00
8366;BME280;4220;42.502;24.188;2022-10-26T05:23:27;95688.06;;;12.70;100.00
8366;BME280;4220;42.502;24.188;2022-10-26T05:25:54;95678.19;;;12.77;100.00
8366;BME280;4220;42.502;24.188;2022-10-26T05:28:22;95677.44;;;12.70;100.00
8366;BME280;4220;42.502;24.188;2022-10-26T05:30:48;95674.19;;;12.68;100.00
8366;BME280;4220;42.502;24.188;2022-10-26T05:33:15;95687.41;;;12.92;100.00
8366;BME280;4220;42.502;24.188;2022-10-26T05:35:42;95682.84;;;12.99;100.00
8366;BME280;4220;42.502;24.188;2022-10-26T05:38:10;95691.47;;;12.95;100.00
8366;BME280;4220;42.502;24.188;2022-10-26T05:40:45;95696.38;;;12.98;100.00
8366;BME280;4220;42.502;24.188;2022-10-26T05:43:13;95701.16;;;13.14;100.00
8366;BME280;4220;42.502;24.188;2022-10-26T05:45:39;95629.84;;;12.80;100.00
8366;BME280;4220;42.502;24.188;2022-10-26T05:48:06;95716.72;;;13.47;100.00
8366;BME280;4220;42.502;24.188;2022-10-26T05:50:33;95716.97;;;13.63;100.00
8366;BME280;4220;42.502;24.188;2022-10-26T05:53:00;95703.28;;;13.71;100.00
8366;BME280;4220;42.502;24.188;2022-10-26T05:55:28;95725.47;;;13.54;100.00
8366;BME280;4220;42.502;24.188;2022-10-26T05:57:56;95720.59;;;13.51;100.00
8366;BME280;4220;42.502;24.188;2022-10-26T06:00:25;95716.88;;;13.70;100.00
8366;BME280;4220;42.502;24.188;2022-10-26T06:03:15;95733.56;;;13.77;100.00
8366;BME280;4220;42.502;24.188;2022-10-26T06:05:51;95725.91;;;13.99;100.00
8366;BME280;4220;42.502;24.188;2022-10-26T06:08:19;95728.06;;;14.20;100.00
8366;BME280;4220;42.502;24.188;2022-10-26T06:10:47;95719.28;;;14.31;100.00
8366;BME280;4220;42.502;24.188;2022-10-26T06:13:16;95740.13;;;14.64;100.00
8366;BME280;4220;42.502;24.188;2022-10-26T06:15:52;95742.34;;;14.78;98.93
8366;BME280;4220;42.502;24.188;2022-10-26T06:18:31;95734.69;;;14.93;97.59
8366;BME280;4220;42.502;24.188;2022-10-26T06:21:13;95725.25;;;14.79;97.57
8366;BME280;4220;42.502;24.188;2022-10-26T06:23:50;95732.13;;;14.98;97.34
8366;BME280;4220;42.502;24.188;2022-10-26T06:26:29;95735.59;;;15.22;96.78
8366;BME280;4220;42.502;24.188;2022-10-26T06:29:10;95714.56;;;15.26;95.57
8366;BME280;4220;42.502;24.188;2022-10-26T06:31:38;95743.13;;;15.60;94.78
8366;BME280;4220;42.502;24.188;2022-10-26T06:34:05;95741.91;;;15.79;93.21
8366;BME280;4220;42.502;24.188;2022-10-26T06:36:32;95746.25;;;15.97;93.04
8366;BME280;4220;42.502;24.188;2022-10-26T06:39:02;95748.72;;;16.15;91.39
8366;BME280;4220;42.502;24.188;2022-10-26T06:41:31;95754.25;;;16.25;89.43
8366;BME280;4220;42.502;24.188;2022-10-26T06:43:58;95747.63;;;16.27;89.14
8366;BME280;4220;42.502;24.188;2022-10-26T06:46:36;95740.34;;;16.40;89.50
8366;BME280;4220;42.502;24.188;2022-10-26T06:49:11;95742.00;;;16.57;88.41
8366;BME280;4220;42.502;24.188;2022-10-26T06:51:43;95741.44;;;16.72;86.23
8366;BME280;4220;42.502;24.188;2022-10-26T06:54:15;95749.09;;;16.80;83.02
8366;BME280;4220;42.502;24.188;2022-10-26T06:56:45;95756.13;;;16.86;83.48
8366;BME280;4220;42.502;24.188;2022-10-26T06:59:17;95743.97;;;16.95;82.56
8366;BME280;4220;42.502;24.188;2022-10-26T07:01:47;95747.19;;;17.14;81.61
8366;BME280;4220;42.502;24.188;2022-10-26T07:04:14;95750.31;;;17.27;80.21
8366;BME280;4220;42.502;24.188;2022-10-26T07:06:41;95764.38;;;17.34;78.25
8366;BME280;4220;42.502;24.188;2022-10-26T07:09:08;95768.19;;;17.38;79.06
8366;BME280;4220;42.502;24.188;2022-10-26T07:11:34;95759.03;;;17.34;78.25
8366;BME280;4220;42.502;24.188;2022-10-26T07:14:01;95759.81;;;17.35;78.59
8366;BME280;4220;42.502;24.188;2022-10-26T07:16:28;95725.91;;;17.24;77.32
8366;BME280;4220;42.502;24.188;2022-10-26T07:18:56;95762.59;;;17.56;76.82
8366;BME280;4220;42.502;24.188;2022-10-26T07:21:23;95764.81;;;17.64;76.06
8366;BME280;4220;42.502;24.188;2022-10-26T07:23:50;95764.31;;;17.68;75.36
8366;BME280;4220;42.502;24.188;2022-10-26T07:26:20;95758.47;;;17.71;75.44
8366;BME280;4220;42.502;24.188;2022-10-26T07:28:47;95768.31;;;17.87;74.64
8366;BME280;4220;42.502;24.188;2022-10-26T07:31:14;95764.69;;;17.98;73.99
8366;BME280;4220;42.502;24.188;2022-10-26T07:33:41;95729.63;;;17.83;72.93
8366;BME280;4220;42.502;24.188;2022-10-26T07:36:11;95751.47;;;18.13;70.48
8366;BME280;4220;42.502;24.188;2022-10-26T07:38:38;95753.72;;;18.26;70.77
8366;BME280;4220;42.502;24.188;2022-10-26T07:41:05;95770.00;;;18.41;69.52
8366;BME280;4220;42.502;24.188;2022-10-26T07:43:32;95769.50;;;18.44;69.55
8366;BME280;4220;42.502;24.188;2022-10-26T07:45:59;95761.72;;;18.43;69.33
8366;BME280;4220;42.502;24.188;2022-10-26T07:48:25;95766.91;;;18.49;69.60
8366;BME280;4220;42.502;24.188;2022-10-26T07:50:52;95758.88;;;18.54;68.26
8366;BME280;4220;42.502;24.188;2022-10-26T07:53:20;95768.38;;;18.62;67.79
8366;BME280;4220;42.502;24.188;2022-10-26T07:55:52;95765.19;;;18.70;65.74
8366;BME280;4220;42.502;24.188;2022-10-26T07:58:19;95774.44;;;18.79;66.19
8366;BME280;4220;42.502;24.188;2022-10-26T08:00:48;95773.94;;;18.87;64.62
8366;BME280;4220;42.502;24.188;2022-10-26T08:03:15;95773.28;;;19.02;65.72
8366;BME280;4220;42.502;24.188;2022-10-26T08:05:42;95767.72;;;19.13;64.97
8366;BME280;4220;42.502;24.188;2022-10-26T08:08:08;95768.28;;;19.20;62.59
8366;BME280;4220;42.502;24.188;2022-10-26T08:10:37;95766.50;;;19.31;61.73
8366;BME280;4220;42.502;24.188;2022-10-26T08:13:07;95775.66;;;19.35;61.57
8366;BME280;4220;42.502;24.188;2022-10-26T08:15:34;95767.34;;;19.36;61.12
8366;BME280;4220;42.502;24.188;2022-10-26T08:18:01;95775.31;;;19.63;60.92
8366;BME280;4220;42.502;24.188;2022-10-26T08:20:27;95775.94;;;19.75;59.40
8366;BME280;4220;42.502;24.188;2022-10-26T08:22:55;95772.19;;;19.86;59.60
8366;BME280;4220;42.502;24.188;2022-10-26T08:25:21;95772.75;;;19.93;58.21
8366;BME280;4220;42.502;24.188;2022-10-26T08:27:50;95773.81;;;19.87;58.19
8366;BME280;4220;42.502;24.188;2022-10-26T08:30:17;95758.81;;;20.01;58.48
8366;BME280;4220;42.502;24.188;2022-10-26T08:32:43;95752.94;;;20.19;57.31
8366;BME280;4220;42.502;24.188;2022-10-26T08:35:10;95765.06;;;20.22;56.38
8366;BME280;4220;42.502;24.188;2022-10-26T08:37:37;95756.97;;;20.17;56.78
8366;BME280;4220;42.502;24.188;2022-10-26T08:40:05;95766.72;;;20.23;56.53
8366;BME280;4220;42.502;24.188;2022-10-26T08:42:33;95764.34;;;20.37;56.36
8366;BME280;4220;42.502;24.188;2022-10-26T08:45:11;95758.94;;;20.52;55.73
8366;BME280;4220;42.502;24.188;2022-10-26T08:47:46;95765.47;;;20.71;55.13
8366;BME280;4220;42.502;24.188;2022-10-26T08:50:23;95767.09;;;20.92;54.60
8366;BME280;4220;42.502;24.188;2022-10-26T08:52:55;95765.25;;;21.08;53.67
8366;BME280;4220;42.502;24.188;2022-10-26T08:55:32;95771.72;;;21.17;53.45
8366;BME280;4220;42.502;24.188;2022-10-26T08:58:01;95768.72;;;21.28;52.42
8366;BME280;4220;42.502;24.188;2022-10-26T09:00:32;95736.88;;;21.25;52.42
8366;BME280;4220;42.502;24.188;2022-10-26T09:02:59;95767.84;;;21.68;51.87
8366;BME280;4220;42.502;24.188;2022-10-26T09:05:29;95732.22;;;21.66;51.09
8366;BME280;4220;42.502;24.188;2022-10-26T09:08:03;95758.34;;;21.96;50.63
8366;BME280;4220;42.502;24.188;2022-10-26T09:10:39;95759.34;;;22.10;50.60
8366;BME280;4220;42.502;24.188;2022-10-26T09:13:15;95764.13;;;22.28;49.39
8366;BME280;4220;42.502;24.188;2022-10-26T09:15:57;95763.78;;;22.45;49.04
8366;BME280;4220;42.502;24.188;2022-10-26T09:18:36;95764.53;;;22.55;48.15
8366;BME280;4220;42.502;24.188;2022-10-26T09:21:15;95760.78;;;22.46;47.74
8366;BME280;4220;42.502;24.188;2022-10-26T09:24:00;95756.66;;;22.59;47.97
8366;BME280;4220;42.502;24.188;2022-10-26T09:26:31;95760.66;;;22.71;46.10
8366;BME280;4220;42.502;24.188;2022-10-26T09:29:02;95755.25;;;22.71;45.11
8366;BME280;4220;42.502;24.188;2022-10-26T09:31:37;95737.34;;;22.75;45.58
8366;BME280;4220;42.502;24.188;2022-10-26T09:34:06;95758.41;;;22.84;45.79
8366;BME280;4220;42.502;24.188;2022-10-26T09:36:34;95756.78;;;22.83;45.31
8366;BME280;4220;42.502;24.188;2022-10-26T09:39:09;95717.50;;;22.51;45.34
8366;BME280;4220;42.502;24.188;2022-10-26T09:41:41;95754.34;;;22.81;45.22
8366;BME280;4220;42.502;24.188;2022-10-26T09:44:17;95752.59;;;23.00;43.84
8366;BME280;4220;42.502;24.188;2022-10-26T09:46:54;95751.56;;;23.25;43.80
8366;BME280;4220;42.502;24.188;2022-10-26T09:49:26;95764.78;;;23.36;43.77
8366;BME280;4220;42.502;24.188;2022-10-26T09:51:57;95765.75;;;23.46;43.67
8366;BME280;4220;42.502;24.188;2022-10-26T09:54:24;95763.84;;;23.46;43.00
8366;BME280;4220;42.502;24.188;2022-10-26T09:56:53;95730.09;;;23.38;42.47
8366;BME280;4220;42.502;24.188;2022-10-26T09:59:23;95755.59;;;23.27;42.47
8366;BME280;4220;42.502;24.188;2022-10-26T10:01:52;95757.84;;;22.87;43.80
8366;BME280;4220;42.502;24.188;2022-10-26T10:04:21;95752.06;;;22.64;45.13
8366;BME280;4220;42.502;24.188;2022-10-26T10:06:50;95743.66;;;22.61;44.14
8366;BME280;4220;42.502;24.188;2022-10-26T10:09:19;95746.69;;;22.49;44.57
8366;BME280;4220;42.502;24.188;2022-10-26T10:11:48;95750.41;;;22.63;45.04
8366;BME280;4220;42.502;24.188;2022-10-26T10:14:22;95743.44;;;22.52;44.18
8366;BME280;4220;42.502;24.188;2022-10-26T10:16:53;95698.84;;;22.11;44.86
8366;BME280;4220;42.502;24.188;2022-10-26T10:19:22;95741.91;;;22.36;45.30
8366;BME280;4220;42.502;24.188;2022-10-26T10:21:53;95741.38;;;22.34;45.01
8366;BME280;4220;42.502;24.188;2022-10-26T10:24:28;95728.97;;;22.33;45.52
8366;BME280;4220;42.502;24.188;2022-10-26T10:26:59;95692.78;;;22.24;45.12
8366;BME280;4220;42.502;24.188;2022-10-26T10:29:27;95729.94;;;22.52;42.69
8366;BME280;4220;42.502;24.188;2022-10-26T10:31:57;95737.50;;;22.55;42.47
8366;BME280;4220;42.502;24.188;2022-10-26T10:34:25;95734.53;;;22.52;43.40
8366;BME280;4220;42.502;24.188;2022-10-26T10:36:52;95750.00;;;22.41;43.95
8366;BME280;4220;42.502;24.188;2022-10-26T10:39:37;95736.44;;;22.46;43.28
8366;BME280;4220;42.502;24.188;2022-10-26T10:42:13;95733.13;;;22.64;42.75
8366;BME280;4220;42.502;24.188;2022-10-26T10:44:42;95728.66;;;22.84;42.60
8366;BME280;4220;42.502;24.188;2022-10-26T10:47:20;95725.38;;;22.87;41.11
8366;BME280;4220;42.502;24.188;2022-10-26T10:49:53;95724.75;;;23.00;41.90
8366;BME280;4220;42.502;24.188;2022-10-26T10:52:26;95720.22;;;23.19;41.68
8366;BME280;4220;42.502;24.188;2022-10-26T10:55:02;95706.78;;;23.09;39.52
8366;BME280;4220;42.502;24.188;2022-10-26T10:57:39;95714.56;;;23.15;40.98
8366;BME280;4220;42.502;24.188;2022-10-26T11:00:11;95720.97;;;23.24;41.22
8366;BME280;4220;42.502;24.188;2022-10-26T11:03:02;95708.78;;;23.27;41.14
8366;BME280;4220;42.502;24.188;2022-10-26T11:06:02;95704.97;;;23.28;40.72
8366;BME280;4220;42.502;24.188;2022-10-26T11:08:35;95711.97;;;23.34;40.60
8366;BME280;4220;42.502;24.188;2022-10-26T11:11:08;95711.66;;;23.40;40.38
8366;BME280;4220;42.502;24.188;2022-10-26T11:13:39;95708.44;;;23.62;40.48
8366;BME280;4220;42.502;24.188;2022-10-26T11:16:12;95709.53;;;23.61;40.32
8366;BME280;4220;42.502;24.188;2022-10-26T11:18:44;95695.13;;;23.66;41.17
8366;BME280;4220;42.502;24.188;2022-10-26T11:21:21;95708.25;;;23.77;39.99
8366;BME280;4220;42.502;24.188;2022-10-26T11:23:55;95700.38;;;23.81;39.82
8366;BME280;4220;42.502;24.188;2022-10-26T11:26:28;95709.47;;;23.90;39.61
8366;BME280;4220;42.502;24.188;2022-10-26T11:29:00;95705.84;;;23.76;38.81
8366;BME280;4220;42.502;24.188;2022-10-26T11:31:31;95711.44;;;23.84;38.63
8366;BME280;4220;42.502;24.188;2022-10-26T11:34:13;95705.25;;;24.02;38.94
8366;BME280;4220;42.502;24.188;2022-10-26T11:36:44;95708.59;;;23.94;37.70
8366;BME280;4220;42.502;24.188;2022-10-26T11:39:18;95707.44;;;24.00;39.25
8366;BME280;4220;42.502;24.188;2022-10-26T11:41:50;95710.03;;;24.11;39.16
8366;BME280;4220;42.502;24.188;2022-10-26T11:44:25;95724.13;;;24.31;36.30
8366;BME280;4220;42.502;24.188;2022-10-26T11:46:56;95703.09;;;24.23;36.75
8366;BME280;4220;42.502;24.188;2022-10-26T11:49:32;95701.13;;;24.47;36.37
8366;BME280;4220;42.502;24.188;2022-10-26T11:52:07;95731.31;;;24.41;35.10
8366;BME280;4220;42.502;24.188;2022-10-26T11:54:39;95724.63;;;24.15;36.74
8366;BME280;4220;42.502;24.188;2022-10-26T11:57:06;95697.13;;;24.02;36.37
8366;BME280;4220;42.502;24.188;2022-10-26T11:59:38;95706.03;;;24.03;36.85
8366;BME280;4220;42.502;24.188;2022-10-26T12:02:13;95711.00;;;24.20;36.88
8366;BME280;4220;42.502;24.188;2022-10-26T12:04:44;95695.31;;;24.17;35.66
8366;BME280;4220;42.502;24.188;2022-10-26T12:07:18;95700.41;;;24.42;36.66
8366;BME280;4220;42.502;24.188;2022-10-26T12:09:47;95692.63;;;24.54;36.52
8366;BME280;4220;42.502;24.188;2022-10-26T12:12:20;95709.13;;;24.39;36.77
8366;BME280;4220;42.502;24.188;2022-10-26T12:14:54;95688.88;;;24.31;37.17
8366;BME280;4220;42.502;24.188;2022-10-26T12:17:27;95698.78;;;24.41;36.39
8366;BME280;4220;42.502;24.188;2022-10-26T12:20:05;95697.69;;;24.42;35.99
8366;BME280;4220;42.502;24.188;2022-10-26T12:22:36;95670.06;;;24.21;36.13
8366;BME280;4220;42.502;24.188;2022-10-26T12:25:16;95699.06;;;24.58;36.24
8366;BME280;4220;42.502;24.188;2022-10-26T12:27:50;95705.72;;;25.03;34.93
8366;BME280;4220;42.502;24.188;2022-10-26T12:30:27;95708.28;;;25.26;34.53
8366;BME280;4220;42.502;24.188;2022-10-26T12:32:56;95698.81;;;25.24;33.87
8366;BME280;4220;42.502;24.188;2022-10-26T12:35:42;95701.03;;;25.22;32.57
8366;BME280;4220;42.502;24.188;2022-10-26T12:41:24;95697.41;;;25.72;32.26
8366;BME280;4220;42.502;24.188;2022-10-26T12:44:01;95695.25;;;25.56;32.63
8366;BME280;4220;42.502;24.188;2022-10-26T12:46:38;95700.59;;;25.47;30.53
8366;BME280;4220;42.502;24.188;2022-10-26T12:52:19;95706.53;;;25.49;30.44
8366;BME280;4220;42.502;24.188;2022-10-26T12:57:45;95709.59;;;25.29;31.03
8366;BME280;4220;42.502;24.188;2022-10-26T13:00:17;95694.88;;;25.16;31.21
8366;BME280;4220;42.502;24.188;2022-10-26T13:02:57;95710.22;;;25.40;31.50
8366;BME280;4220;42.502;24.188;2022-10-26T13:05:58;95709.56;;;25.61;31.22
8366;BME280;4220;42.502;24.188;2022-10-26T13:08:38;95704.41;;;25.46;31.62
8366;BME280;4220;42.502;24.188;2022-10-26T13:11:12;95693.47;;;25.51;31.65
8366;BME280;4220;42.502;24.188;2022-10-26T13:13:41;95707.38;;;25.77;31.03
8366;BME280;4220;42.502;24.188;2022-10-26T13:16:10;95697.50;;;25.81;30.48
8366;BME280;4220;42.502;24.188;2022-10-26T13:18:41;95704.03;;;25.53;31.37
8366;BME280;4220;42.502;24.188;2022-10-26T13:21:09;95708.00;;;25.42;32.53
8366;BME280;4220;42.502;24.188;2022-10-26T13:23:41;95698.28;;;25.54;32.39
8366;BME280;4220;42.502;24.188;2022-10-26T13:26:10;95711.66;;;25.51;32.17
8366;BME280;4220;42.502;24.188;2022-10-26T13:28:46;95702.97;;;25.35;32.65
8366;BME280;4220;42.502;24.188;2022-10-26T13:34:19;95696.34;;;25.09;33.46
8366;BME280;4220;42.502;24.188;2022-10-26T13:36:50;95706.53;;;25.17;33.65
8366;BME280;4220;42.502;24.188;2022-10-26T13:39:23;95704.81;;;25.07;34.01
8366;BME280;4220;42.502;24.188;2022-10-26T13:41:52;95704.13;;;25.15;33.67